Time;durP1;ratioP1;P1;durP2;ratioP2;P2;SDS_P1;SDS_P2;PMS_P1;PMS_P2;Temp;Humidity;BMP_temperature;BMP_pressure;BME280_temperature;BME280_humidity;BME280_pressure;Samples;Min_cycle;Max_cycle;Signal;HPM_P1;HPM_P2
2021/08/31 00:01:47;;;;;;;36.28;27.27;;;19.20;99.80;;;;;;5012715;28;20395;-81
2021/08/31 00:04:13;;;;;;;32.42;26.02;;;19.20;99.70;;;;;;5012298;28;20026;-81
2021/08/31 00:06:39;;;;;;;29.63;26.38;;;19.20;99.50;;;;;;5013310;28;20022;-80
2021/08/31 00:09:05;;;;;;;31.70;26.58;;;19.20;99.20;;;;;;5013839;28;20022;-83
2021/08/31 00:11:31;;;;;;;34.35;26.52;;;19.10;99.30;;;;;;5012446;28;20379;-81
2021/08/31 00:13:57;;;;;;;29.75;26.67;;;19.00;99.50;;;;;;5013471;28;20105;-81
2021/08/31 00:16:23;;;;;;;32.90;27.60;;;19.00;99.90;;;;;;5013411;28;20422;-81
2021/08/31 00:18:49;;;;;;;32.58;27.02;;;18.90;99.90;;;;;;5013790;28;20032;-83
2021/08/31 00:21:15;;;;;;;37.88;27.35;;;18.80;99.90;;;;;;5015274;28;20534;-82
2021/08/31 00:23:41;;;;;;;34.22;28.20;;;18.70;99.90;;;;;;5014332;28;20029;-81
2021/08/31 00:26:07;;;;;;;36.78;30.27;;;18.60;99.90;;;;;;5013301;28;20547;-82
2021/08/31 00:28:32;;;;;;;35.15;29.08;;;18.40;99.90;;;;;;5013103;28;20133;-81
2021/08/31 00:30:58;;;;;;;31.73;28.23;;;18.20;99.90;;;;;;5006398;28;20060;-79
2021/08/31 00:33:24;;;;;;;37.45;29.23;;;18.10;99.90;;;;;;5008739;28;20391;-81
2021/08/31 00:35:50;;;;;;;37.78;31.60;;;18.10;99.90;;;;;;5010390;28;20380;-81
2021/08/31 00:38:16;;;;;;;38.97;29.70;;;18.10;99.90;;;;;;5013213;28;20545;-81
2021/08/31 00:40:41;;;;;;;38.92;31.15;;;18.00;99.90;;;;;;5013085;28;20052;-81
2021/08/31 00:43:07;;;;;;;35.10;31.27;;;18.00;99.90;;;;;;5012537;28;20072;-81
2021/08/31 00:45:34;;;;;;;38.85;29.75;;;17.90;99.90;;;;;;5009976;28;20042;-81
2021/08/31 00:48:01;;;;;;;39.75;29.65;;;18.00;99.90;;;;;;5001038;28;20529;-81
2021/08/31 00:50:27;;;;;;;37.83;31.05;;;18.00;99.90;;;;;;5012633;28;20526;-80
2021/08/31 00:52:53;;;;;;;44.83;31.52;;;18.00;99.90;;;;;;5013066;28;20018;-81
2021/08/31 00:55:19;;;;;;;37.70;31.13;;;17.90;99.90;;;;;;5013193;28;20018;-81
2021/08/31 00:57:45;;;;;;;32.58;27.88;;;18.00;99.90;;;;;;5012653;28;20029;-81
2021/08/31 01:00:13;;;;;;;36.80;29.05;;;17.90;99.90;;;;;;5012719;28;20021;-81
2021/08/31 01:02:40;;;;;;;37.92;31.23;;;17.90;99.90;;;;;;5012539;28;20032;-81
2021/08/31 01:05:07;;;;;;;33.57;29.63;;;17.90;99.90;;;;;;5012656;28;20538;-81
2021/08/31 01:07:33;;;;;;;40.10;31.30;;;17.90;99.90;;;;;;5012847;28;20028;-81
2021/08/31 01:10:01;;;;;;;36.28;29.23;;;17.90;99.90;;;;;;5013030;28;20025;-82
2021/08/31 01:12:27;;;;;;;34.35;28.42;;;18.00;99.90;;;;;;5013460;28;20425;-81
2021/08/31 01:14:54;;;;;;;32.80;28.27;;;18.00;99.90;;;;;;5020514;28;20056;-81
2021/08/31 01:17:28;;;;;;;35.15;28.90;;;18.00;99.90;;;;;;5021908;28;20429;-81
2021/08/31 01:19:55;;;;;;;34.72;29.15;;;18.00;99.90;;;;;;5015720;28;20018;-80
2021/08/31 01:22:21;;;;;;;34.13;29.75;;;18.10;99.90;;;;;;5016847;28;20061;-81
2021/08/31 01:24:58;;;;;;;35.60;27.58;;;18.10;99.90;;;;;;5015271;28;20065;-79
2021/08/31 01:27:26;;;;;;;35.47;27.23;;;18.10;99.90;;;;;;5016679;28;20379;-81
2021/08/31 01:29:52;;;;;;;;;;;18.10;99.90;;;;;;5016734;28;20029;-82
2021/08/31 01:32:18;;;;;;;30.83;27.47;;;18.00;99.90;;;;;;5016407;28;19906;-81
2021/08/31 01:34:44;;;;;;;35.63;26.88;;;18.00;99.90;;;;;;5016257;28;20022;-81
2021/08/31 01:37:11;;;;;;;32.85;26.25;;;18.00;99.90;;;;;;5015069;28;20120;-81
2021/08/31 01:39:37;;;;;;;;;;;18.10;99.90;;;;;;5016868;28;20105;-80
2021/08/31 01:42:03;;;;;;;33.90;26.55;;;18.10;99.90;;;;;;5017619;28;19956;-80
2021/08/31 01:44:29;;;;;;;33.80;27.20;;;18.00;99.90;;;;;;5020947;28;20072;-79
2021/08/31 01:46:55;;;;;;;33.95;27.25;;;18.10;99.90;;;;;;5017212;28;20022;-81
2021/08/31 01:49:21;;;;;;;35.60;27.90;;;18.10;99.90;;;;;;5016367;28;20488;-81
2021/08/31 01:51:47;;;;;;;38.15;28.98;;;18.10;99.90;;;;;;5015948;28;20030;-81
2021/08/31 01:54:12;;;;;;;30.60;26.67;;;18.10;99.90;;;;;;5016103;28;20383;-80
2021/08/31 01:56:39;;;;;;;34.92;26.70;;;18.10;99.90;;;;;;5016048;28;20093;-80
2021/08/31 01:59:06;;;;;;;30.93;25.07;;;18.10;99.90;;;;;;5014625;28;20120;-80
2021/08/31 02:01:31;;;;;;;31.83;26.15;;;18.10;99.90;;;;;;5016027;28;20268;-81
2021/08/31 02:03:57;;;;;;;32.78;26.48;;;18.10;99.90;;;;;;5015519;28;20091;-80
2021/08/31 02:06:23;;;;;;;35.22;25.90;;;18.10;99.90;;;;;;5015776;28;20079;-81
2021/08/31 02:08:49;;;;;;;34.38;26.98;;;18.10;99.90;;;;;;5015501;28;20506;-80
2021/08/31 02:11:15;;;;;;;31.45;25.75;;;18.10;99.90;;;;;;5015755;28;20030;-80
2021/08/31 02:13:41;;;;;;;30.27;26.35;;;18.10;99.90;;;;;;5015580;28;20554;-79
2021/08/31 02:16:08;;;;;;;31.15;26.00;;;18.20;99.90;;;;;;5015656;28;20160;-80
2021/08/31 02:18:41;;;;;;;34.33;26.80;;;18.20;99.90;;;;;;5015768;28;20473;-80
2021/08/31 02:21:10;;;;;;;34.75;27.17;;;18.30;99.90;;;;;;5015350;28;20034;-80
2021/08/31 02:23:37;;;;;;;38.35;26.98;;;18.30;99.90;;;;;;5015344;28;20037;-80
2021/08/31 02:26:04;;;;;;;35.00;27.50;;;18.20;99.90;;;;;;5015380;28;20021;-80
2021/08/31 02:28:30;;;;;;;36.97;27.65;;;18.20;99.90;;;;;;5015219;28;20452;-80
2021/08/31 02:30:55;;;;;;;31.60;27.77;;;18.20;99.90;;;;;;5014550;28;20058;-80
2021/08/31 02:33:21;;;;;;;32.28;25.92;;;18.20;99.90;;;;;;5015574;28;20403;-79
2021/08/31 02:35:47;;;;;;;32.63;25.65;;;18.20;99.90;;;;;;5015502;28;20030;-79
2021/08/31 02:38:13;;;;;;;33.53;27.45;;;18.20;99.90;;;;;;5015313;28;20483;-79
2021/08/31 02:40:39;;;;;;;37.22;29.27;;;18.20;99.90;;;;;;5015046;28;20033;-81
2021/08/31 02:43:05;;;;;;;33.95;27.02;;;18.30;99.90;;;;;;5014650;28;20050;-80
2021/08/31 02:45:31;;;;;;;32.35;25.60;;;18.30;99.90;;;;;;5014838;28;20018;-79
2021/08/31 02:47:56;;;;;;;30.55;25.95;;;18.30;99.90;;;;;;5014918;28;20022;-79
2021/08/31 02:50:22;;;;;;;32.45;25.20;;;18.30;99.90;;;;;;5014636;28;20033;-79
2021/08/31 02:52:49;;;;;;;27.80;24.90;;;18.30;99.90;;;;;;5014932;28;20037;-82
2021/08/31 02:55:15;;;;;;;27.05;23.40;;;18.20;99.90;;;;;;5014868;28;20022;-81
2021/08/31 02:57:41;;;;;;;25.48;22.65;;;18.20;99.90;;;;;;5015527;28;20030;-79
2021/08/31 03:00:08;;;;;;;28.73;23.70;;;18.10;99.90;;;;;;5014949;28;20030;-81
2021/08/31 03:02:35;;;;;;;31.23;24.95;;;18.20;99.90;;;;;;5014605;28;20076;-81
2021/08/31 03:05:00;;;;;;;32.70;25.85;;;18.20;99.90;;;;;;5014617;28;20042;-81
2021/08/31 03:07:26;;;;;;;29.45;25.38;;;18.20;99.80;;;;;;5014530;28;20018;-81
2021/08/31 03:09:52;;;;;;;32.88;27.15;;;18.20;99.90;;;;;;5013384;28;20113;-82
2021/08/31 03:12:18;;;;;;;35.00;27.17;;;18.10;99.90;;;;;;5013719;28;20446;-82
2021/08/31 03:14:44;;;;;;;34.40;28.13;;;18.10;99.90;;;;;;5017473;28;20029;-81
2021/08/31 03:17:10;;;;;;;37.67;28.27;;;18.10;99.90;;;;;;5016671;28;20040;-81
2021/08/31 03:19:36;;;;;;;32.72;26.48;;;18.10;99.90;;;;;;5014319;28;20022;-80
2021/08/31 03:22:03;;;;;;;32.60;26.63;;;18.00;99.90;;;;;;5014463;28;20463;-80
2021/08/31 03:24:30;;;;;;;30.45;26.60;;;18.10;99.90;;;;;;5012985;28;20514;-82
2021/08/31 03:26:56;;;;;;;33.20;27.63;;;18.10;99.90;;;;;;5014359;28;20083;-81
2021/08/31 03:29:22;;;;;;;36.45;28.00;;;18.10;99.90;;;;;;5014094;28;20034;-82
2021/08/31 03:31:49;;;;;;;36.00;29.30;;;18.10;99.90;;;;;;5013171;28;20026;-79
2021/08/31 03:34:15;;;;;;;37.72;29.38;;;18.10;99.90;;;;;;5014041;28;20026;-81
2021/08/31 03:36:41;;;;;;;35.67;28.98;;;18.20;99.90;;;;;;5014215;28;20475;-83
2021/08/31 03:39:07;;;;;;;34.70;26.85;;;18.30;99.90;;;;;;5014112;28;20132;-81
2021/08/31 03:41:33;;;;;;;33.78;27.85;;;18.30;99.80;;;;;;5012533;28;20050;-81
2021/08/31 03:43:59;;;;;;;35.22;28.50;;;18.30;99.40;;;;;;5011427;28;20411;-81
2021/08/31 03:46:25;;;;;;;33.72;27.27;;;18.30;99.40;;;;;;5014179;28;20030;-82
2021/08/31 03:48:51;;;;;;;35.38;29.15;;;18.30;99.40;;;;;;5017360;28;20091;-80
2021/08/31 03:51:17;;;;;;;32.90;27.77;;;18.30;99.50;;;;;;5021035;28;20463;-80
2021/08/31 03:53:43;;;;;;;34.72;29.02;;;18.30;99.50;;;;;;5017405;28;20030;-80
2021/08/31 03:56:09;;;;;;;31.95;25.60;;;18.30;99.30;;;;;;5014661;28;20093;-81
2021/08/31 03:58:35;;;;;;;28.85;23.70;;;18.20;99.40;;;;;;5013918;28;20403;-81
2021/08/31 04:01:00;;;;;;;32.53;25.08;;;18.20;98.90;;;;;;5012379;28;20383;-83
2021/08/31 04:03:26;;;;;;;30.08;24.38;;;18.20;98.80;;;;;;5012400;28;20030;-84
2021/08/31 04:05:52;;;;;;;29.65;25.02;;;18.20;99.00;;;;;;5013486;28;20063;-82
2021/08/31 04:08:18;;;;;;;32.67;24.33;;;18.20;99.00;;;;;;5016154;28;20495;-80
2021/08/31 04:10:44;;;;;;;31.60;26.48;;;18.20;98.80;;;;;;5022409;28;20028;-81
2021/08/31 04:13:12;;;;;;;34.28;27.00;;;18.20;99.00;;;;;;5017720;28;20387;-82
2021/08/31 04:15:38;;;;;;;29.20;24.70;;;18.30;98.90;;;;;;5012521;28;20488;-81
2021/08/31 04:18:04;;;;;;;27.80;23.60;;;18.30;98.50;;;;;;5013672;28;20025;-81
2021/08/31 04:20:30;;;;;;;32.70;25.35;;;18.30;98.40;;;;;;5013372;28;20026;-80
2021/08/31 04:22:56;;;;;;;30.30;27.00;;;18.30;98.20;;;;;;5013348;28;20376;-83
2021/08/31 04:25:22;;;;;;;32.70;26.52;;;18.30;98.40;;;;;;5007581;28;20030;-83
2021/08/31 04:27:49;;;;;;;29.93;25.37;;;18.30;98.40;;;;;;5010704;28;20498;-81
2021/08/31 04:30:15;;;;;;;31.70;24.50;;;18.30;98.40;;;;;;5012105;28;20632;-82
2021/08/31 04:32:41;;;;;;;30.63;24.30;;;18.30;98.20;;;;;;5012783;28;20227;-82
2021/08/31 04:35:07;;;;;;;32.75;26.27;;;18.30;98.40;;;;;;5013051;28;20017;-82
2021/08/31 04:37:33;;;;;;;32.80;26.17;;;18.40;98.50;;;;;;5013176;28;20448;-85
2021/08/31 04:39:59;;;;;;;25.50;22.58;;;18.40;98.60;;;;;;5013269;28;20049;-86
2021/08/31 04:42:25;;;;;;;28.80;24.27;;;18.40;98.10;;;;;;5012229;28;20530;-84
2021/08/31 04:44:53;;;;;;;28.15;23.58;;;18.40;97.80;;;;;;5012930;28;20346;-85
2021/08/31 04:47:20;;;;;;;32.53;22.48;;;18.30;97.90;;;;;;5013483;28;20026;-83
2021/08/31 04:49:46;;;;;;;;;;;18.30;98.10;;;;;;5014737;28;20072;-82
2021/08/31 04:52:12;;;;;;;29.17;23.60;;;18.40;98.00;;;;;;5013235;28;19905;-83
2021/08/31 04:54:37;;;;;;;27.50;22.73;;;18.30;98.10;;;;;;5012775;28;20041;-84
2021/08/31 04:57:03;;;;;;;27.85;23.52;;;18.30;98.20;;;;;;5012868;28;20065;-84
2021/08/31 04:59:29;;;;;;;30.63;25.58;;;18.30;98.30;;;;;;5013171;28;20105;-84
2021/08/31 05:01:55;;;;;;;35.97;26.35;;;18.40;98.40;;;;;;5013571;28;20525;-83
2021/08/31 05:04:21;;;;;;;29.33;24.65;;;18.40;98.10;;;;;;5014996;28;20037;-83
2021/08/31 05:06:47;;;;;;;28.60;24.98;;;18.50;97.90;;;;;;5013645;28;20022;-85
2021/08/31 05:09:14;;;;;;;33.45;24.90;;;18.50;97.80;;;;;;5011164;28;20022;-82
2021/08/31 05:11:39;;;;;;;30.45;26.00;;;18.50;97.80;;;;;;5014638;28;20053;-81
2021/08/31 05:14:05;;;;;;;31.55;26.13;;;18.60;97.60;;;;;;5012497;28;20080;-81
2021/08/31 05:16:32;;;;;;;29.00;24.35;;;18.70;97.60;;;;;;5008374;28;20022;-82
2021/08/31 05:18:58;;;;;;;31.35;25.35;;;18.70;97.10;;;;;;5012443;28;20018;-81
2021/08/31 05:21:24;;;;;;;31.30;24.48;;;18.70;96.90;;;;;;5007802;28;20080;-83
2021/08/31 05:23:50;;;;;;;29.20;23.63;;;18.80;97.00;;;;;;5010805;28;20077;-81
2021/08/31 05:26:16;;;;;;;27.70;23.38;;;18.70;96.60;;;;;;5012447;28;20022;-83
2021/08/31 05:28:42;;;;;;;30.25;23.42;;;18.70;96.60;;;;;;5011187;28;20483;-81
2021/08/31 05:31:09;;;;;;;35.05;26.38;;;18.80;96.50;;;;;;5012565;28;20028;-84
2021/08/31 05:33:35;;;;;;;;;;;18.90;96.40;;;;;;5012200;28;20037;-82
2021/08/31 05:36:01;;;;;;;26.73;23.75;;;18.90;96.30;;;;;;5012285;28;19913;-81
2021/08/31 05:38:27;;;;;;;31.08;25.27;;;18.90;96.20;;;;;;5012262;28;20089;-84
2021/08/31 05:40:53;;;;;;;29.77;24.40;;;19.00;96.10;;;;;;5012101;28;20037;-83
2021/08/31 05:43:19;;;;;;;26.25;22.90;;;19.00;96.00;;;;;;5012012;28;20057;-83
2021/08/31 05:45:45;;;;;;;30.25;24.95;;;19.20;95.50;;;;;;5012232;28;20345;-80
2021/08/31 05:48:11;;;;;;;26.63;23.02;;;19.10;95.20;;;;;;5011057;28;20068;-82
2021/08/31 05:50:37;;;;;;;28.70;24.08;;;19.00;95.20;;;;;;5009540;28;20026;-82
2021/08/31 05:53:03;;;;;;;30.25;24.45;;;18.90;95.40;;;;;;5012073;28;20136;-81
2021/08/31 05:55:28;;;;;;;28.92;25.08;;;18.80;95.40;;;;;;5013285;28;20049;-79
2021/08/31 05:57:54;;;;;;;28.95;24.23;;;18.90;95.50;;;;;;5015489;28;20030;-81
2021/08/31 06:00:20;;;;;;;26.02;22.70;;;19.00;95.40;;;;;;5011936;28;20054;-82
2021/08/31 06:02:46;;;;;;;30.20;23.80;;;19.00;95.20;;;;;;5011920;28;20057;-83
2021/08/31 06:05:12;;;;;;;25.38;22.60;;;19.20;95.40;;;;;;5012777;28;20546;-84
2021/08/31 06:07:42;;;;;;;26.25;23.08;;;19.40;95.30;;;;;;5024930;28;20072;-84
2021/08/31 06:10:08;;;;;;;29.23;24.65;;;19.60;94.30;;;;;;5017575;28;20392;-84
2021/08/31 06:12:34;;;;;;;31.77;25.60;;;19.50;94.50;;;;;;5015384;28;20438;-84
2021/08/31 06:15:00;;;;;;;28.42;23.85;;;19.50;94.30;;;;;;5006181;28;20052;-89
2021/08/31 06:17:27;;;;;;;21.77;19.42;;;19.50;94.20;;;;;;5016865;28;20053;-88
2021/08/31 06:19:53;;;;;;;26.48;23.50;;;19.60;94.00;;;;;;5016253;28;20345;-85
2021/08/31 06:22:19;;;;;;;30.73;24.55;;;19.60;93.10;;;;;;5006727;28;20072;-84
2021/08/31 06:24:48;;;;;;;26.10;23.27;;;19.50;93.30;;;;;;5013165;28;20113;-83
2021/08/31 06:27:14;;;;;;;26.02;23.33;;;19.60;93.30;;;;;;5007410;28;20475;-84
2021/08/31 06:29:40;;;;;;;29.95;23.40;;;19.60;93.20;;;;;;5015294;28;20125;-80
2021/08/31 06:32:06;;;;;;;28.08;23.55;;;19.60;92.90;;;;;;5015013;28;20076;-82
2021/08/31 06:34:32;;;;;;;28.05;22.83;;;19.50;92.90;;;;;;5015240;28;20391;-83
2021/08/31 06:36:58;;;;;;;29.27;25.27;;;19.40;93.50;;;;;;5013868;28;20090;-83
2021/08/31 06:39:24;;;;;;;27.95;23.15;;;19.40;93.30;;;;;;5014694;28;20018;-81
2021/08/31 06:41:50;;;;;;;27.15;24.25;;;19.40;93.00;;;;;;5013957;28;20490;-82
2021/08/31 06:44:15;;;;;;;33.13;24.27;;;19.40;93.40;;;;;;5014889;28;20451;-82
2021/08/31 06:46:41;;;;;;;26.85;23.50;;;19.40;93.10;;;;;;5014967;28;20037;-82
2021/08/31 06:49:07;;;;;;;27.63;23.80;;;19.50;93.10;;;;;;5015011;28;20024;-81
2021/08/31 06:51:33;;;;;;;26.65;22.63;;;19.80;92.60;;;;;;5014988;28;20037;-82
2021/08/31 06:54:00;;;;;;;34.63;23.00;;;19.90;92.30;;;;;;5014666;28;20018;-83
2021/08/31 06:56:26;;;;;;;30.75;22.45;;;20.20;92.20;;;;;;5014769;28;20149;-82
2021/08/31 06:58:52;;;;;;;27.65;22.80;;;20.80;91.40;;;;;;5014833;28;20034;-82
2021/08/31 07:01:18;;;;;;;25.00;22.13;;;21.00;90.30;;;;;;5015179;28;20030;-81
2021/08/31 07:03:44;;;;;;;27.27;20.73;;;21.40;88.40;;;;;;5018651;28;20034;-81
2021/08/31 07:06:10;;;;;;;25.52;21.00;;;22.00;87.70;;;;;;5015965;28;20414;-82
2021/08/31 07:08:36;;;;;;;23.30;20.90;;;22.60;83.80;;;;;;5014865;28;20037;-83
2021/08/31 07:11:01;;;;;;;29.40;21.42;;;23.00;82.20;;;;;;5014284;28;20026;-83
2021/08/31 07:13:27;;;;;;;28.48;21.25;;;23.80;79.90;;;;;;5014574;28;20034;-81
2021/08/31 07:15:53;;;;;;;19.92;17.90;;;24.80;75.80;;;;;;5014487;28;20034;-83
2021/08/31 07:18:19;;;;;;;22.23;19.73;;;25.50;71.50;;;;;;5014133;28;20068;-82
2021/08/31 07:20:45;;;;;;;22.17;19.73;;;25.80;70.00;;;;;;5014891;28;20050;-82
2021/08/31 07:23:14;;;;;;;27.30;20.08;;;26.10;67.20;;;;;;5014897;28;20520;-83
2021/08/31 07:25:42;;;;;;;22.10;18.63;;;25.70;67.60;;;;;;5014450;28;20025;-82
2021/08/31 07:28:09;;;;;;;22.23;19.60;;;25.60;67.70;;;;;;5013346;28;20468;-82
2021/08/31 07:30:34;;;;;;;19.67;17.50;;;25.60;68.00;;;;;;5014294;28;20375;-84
2021/08/31 07:33:05;;;;;;;21.83;19.13;;;26.10;67.20;;;;;;5013832;28;20034;-85
2021/08/31 07:35:32;;;;;;;26.55;20.13;;;;;;;;;;5012647;28;20026;-83
2021/08/31 07:37:58;;;;;;;27.27;17.88;;;26.80;65.20;;;;;;5014014;28;20053;-83
2021/08/31 07:40:24;;;;;;;24.40;17.75;;;28.80;60.80;;;;;;5014097;28;20022;-82
2021/08/31 07:42:52;;;;;;;21.27;17.77;;;29.80;57.00;;;;;;5013613;28;20018;-82
2021/08/31 07:45:18;;;;;;;24.83;17.27;;;30.40;55.40;;;;;;5012390;28;20042;-83
2021/08/31 07:47:43;;;;;;;27.57;20.67;;;30.70;53.30;;;;;;5013929;28;20024;-83
2021/08/31 07:50:10;;;;;;;21.53;19.40;;;30.00;52.40;;;;;;5013894;28;20097;-83
2021/08/31 07:52:36;;;;;;;18.52;16.58;;;29.40;53.90;;;;;;5013816;28;20382;-82
2021/08/31 07:55:04;;;;;;;20.73;18.63;;;29.60;55.10;;;;;;5012460;28;20480;-81
2021/08/31 07:57:30;;;;;;;22.63;18.42;;;30.10;53.30;;;;;;5013743;28;20266;-82
2021/08/31 07:59:56;;;;;;;24.33;19.07;;;29.70;52.80;;;;;;5013602;28;20034;-81
2021/08/31 08:02:22;;;;;;;21.37;19.07;;;29.70;53.30;;;;;;5017036;28;20052;-84
2021/08/31 08:04:47;;;;;;;24.17;21.17;;;30.10;52.80;;;;;;5023807;28;20287;-83
2021/08/31 08:07:13;;;;;;;26.40;21.03;;;29.80;51.90;;;;;;5017070;28;20014;-82
2021/08/31 08:09:39;;;;;;;20.50;18.40;;;29.50;52.80;;;;;;5012466;28;20036;-83
2021/08/31 08:12:05;;;;;;;24.20;20.37;;;29.40;53.10;;;;;;5012172;28;20113;-84
2021/08/31 08:14:31;;;;;;;23.53;20.30;;;29.60;53.10;;;;;;5013238;28;20030;-81
2021/08/31 08:16:57;;;;;;;22.15;17.98;;;30.00;52.10;;;;;;5012194;28;20094;-83
2021/08/31 08:19:23;;;;;;;21.07;17.77;;;30.50;51.60;;;;;;5012651;28;20034;-82
2021/08/31 08:21:49;;;;;;;20.20;18.10;;;31.10;50.70;;;;;;5013485;28;20365;-82
2021/08/31 08:24:15;;;;;;;20.67;18.40;;;31.30;48.90;;;;;;5013006;28;20033;-83
2021/08/31 08:26:40;;;;;;;20.53;18.40;;;31.10;50.00;;;;;;5013383;28;20385;-83
2021/08/31 08:29:06;;;;;;;24.03;21.47;;;30.90;49.80;;;;;;5012771;28;20029;-81
2021/08/31 08:31:34;;;;;;;25.93;21.83;;;30.80;49.30;;;;;;5011613;28;20040;-83
2021/08/31 08:34:02;;;;;;;23.50;20.10;;;30.60;50.00;;;;;;5013042;28;20030;-83
2021/08/31 08:36:28;;;;;;;21.92;19.73;;;30.50;50.50;;;;;;5008857;28;20046;-82
2021/08/31 08:38:54;;;;;;;19.80;17.87;;;30.50;50.10;;;;;;5003384;28;20124;-83
2021/08/31 08:41:20;;;;;;;23.73;19.60;;;30.70;50.50;;;;;;5012796;28;20061;-82
2021/08/31 08:43:46;;;;;;;27.37;21.30;;;31.60;48.80;;;;;;5012602;28;20499;-82
2021/08/31 08:46:12;;;;;;;24.37;21.93;;;31.70;48.20;;;;;;5013704;28;20033;-83
2021/08/31 08:48:38;;;;;;;25.17;22.17;;;31.60;48.50;;;;;;5012881;28;20029;-82
2021/08/31 08:51:05;;;;;;;32.90;22.93;;;31.10;48.40;;;;;;5013023;28;20025;-82
2021/08/31 08:53:34;;;;;;;25.50;22.30;;;30.80;49.20;;;;;;5012663;28;20030;-83
2021/08/31 08:56:01;;;;;;;25.67;21.50;;;30.40;49.50;;;;;;5013507;28;20026;-83
2021/08/31 08:58:28;;;;;;;28.23;22.27;;;30.80;50.30;;;;;;5015252;28;20026;-81
2021/08/31 09:01:01;;;;;;;29.45;24.20;;;31.50;49.40;;;;;;5015654;28;20022;-82
2021/08/31 09:03:32;;;;;;;24.73;22.02;;;31.50;48.50;;;;;;5013599;28;20451;-82
2021/08/31 09:06:16;;;;;;;24.65;21.67;;;31.30;48.90;;;;;;5013017;28;20386;-81
2021/08/31 09:08:54;;;;;;;27.05;22.55;;;31.20;48.80;;;;;;5012700;28;20112;-84
2021/08/31 09:11:24;;;;;;;27.08;22.27;;;31.90;47.60;;;;;;5000564;28;20084;-82
2021/08/31 09:13:51;;;;;;;23.20;20.88;;;;;;;;;;5012807;28;20056;-81
2021/08/31 09:16:27;;;;;;;27.40;22.45;;;32.60;46.70;;;;;;5012953;28;20026;-83
2021/08/31 09:18:54;;;;;;;22.30;20.00;;;;;;;;;;5012778;28;20050;-83
2021/08/31 09:21:24;;;;;;;27.63;23.08;;;33.60;44.40;;;;;;5013012;28;20018;-85
2021/08/31 09:23:52;;;;;;;30.40;22.58;;;34.00;43.40;;;;;;5016235;28;20030;-82
2021/08/31 09:26:30;;;;;;;26.75;22.45;;;33.40;44.10;;;;;;5024974;28;20490;-81
2021/08/31 09:28:56;;;;;;;27.88;20.98;;;33.10;45.00;;;;;;5006239;28;20381;-81
2021/08/31 09:31:24;;;;;;;23.80;20.40;;;33.00;45.30;;;;;;5011016;28;20020;-84
2021/08/31 09:33:54;;;;;;;24.55;21.75;;;34.00;44.30;;;;;;5012817;28;20109;-83
2021/08/31 09:36:22;;;;;;;26.77;20.55;;;34.00;43.10;;;;;;5010758;28;20022;-83
2021/08/31 09:38:54;;;;;;;28.83;22.98;;;34.20;43.50;;;;;;5011211;28;20026;-83
2021/08/31 09:41:26;;;;;;;24.58;21.55;;;;;;;;;;5014343;28;20026;-82
2021/08/31 09:43:52;;;;;;;24.63;21.55;;;34.70;42.80;;;;;;5016031;28;20046;-83
2021/08/31 09:46:18;;;;;;;24.40;21.42;;;35.30;41.60;;;;;;5016829;28;20018;-84
2021/08/31 09:48:44;;;;;;;27.80;21.13;;;35.30;41.40;;;;;;5016074;28;20177;-83
2021/08/31 09:51:14;;;;;;;23.30;20.80;;;34.90;41.80;;;;;;5016431;28;20530;-83
2021/08/31 09:53:41;;;;;;;24.98;19.85;;;;;;;;;;5014812;28;20037;-83
2021/08/31 09:56:07;;;;;;;;;;;34.90;42.40;;;;;;5018318;28;20117;-84
2021/08/31 09:58:37;;;;;;;;;;;36.50;41.70;;;;;;5018726;28;20323;-82
2021/08/31 10:01:04;;;;;;;23.10;20.27;;;37.00;41.80;;;;;;5016426;28;19936;-83
2021/08/31 10:03:31;;;;;;;22.05;19.75;;;37.10;39.50;;;;;;5015623;28;20026;-84
2021/08/31 10:05:58;;;;;;;;;;;37.10;38.90;;;;;;5016156;28;20498;-82
2021/08/31 10:08:25;;;;;;;27.70;22.75;;;37.10;40.00;;;;;;5015310;28;19906;-80
2021/08/31 10:10:53;;;;;;;25.83;22.08;;;36.40;38.90;;;;;;5018235;28;20037;-83
2021/08/31 10:13:26;;;;;;;21.48;19.33;;;35.60;39.70;;;;;;5010639;28;20019;-83
2021/08/31 10:15:57;;;;;;;23.20;18.90;;;35.40;40.40;;;;;;5011325;28;20037;-84
2021/08/31 10:18:26;;;;;;;23.60;18.70;;;35.10;40.50;;;;;;5016256;28;20041;-84
2021/08/31 10:20:54;;;;;;;24.02;19.25;;;34.70;41.30;;;;;;5015925;28;20061;-83
2021/08/31 10:23:32;;;;;;;22.75;18.10;;;34.30;41.40;;;;;;5016257;28;20425;-83
2021/08/31 10:26:23;;;;;;;23.10;18.40;;;33.10;42.80;;;;;;5016348;28;20029;-83
2021/08/31 10:29:21;;;;;;;23.70;17.65;;;31.60;44.90;;;;;;5014130;28;20116;-83
2021/08/31 10:31:52;;;;;;;22.00;16.73;;;30.60;47.30;;;;;;5015475;28;20049;-84
2021/08/31 10:34:33;;;;;;;22.48;17.48;;;29.90;48.70;;;;;;5013848;28;20030;-84
2021/08/31 10:37:05;;;;;;;20.42;15.30;;;29.40;50.00;;;;;;5016158;28;20387;-83
2021/08/31 10:39:55;;;;;;;26.63;17.35;;;28.90;50.50;;;;;;5015245;28;20053;-83
2021/08/31 10:42:27;;;;;;;20.58;15.68;;;28.50;51.70;;;;;;5015347;28;20029;-83
2021/08/31 10:44:55;;;;;;;28.27;16.42;;;28.20;52.70;;;;;;5015426;28;20072;-83
2021/08/31 10:47:34;;;;;;;20.83;16.10;;;27.90;53.80;;;;;;5015650;28;20022;-84
2021/08/31 10:50:00;;;;;;;23.83;16.45;;;;;;;;;;5015333;28;20104;-82
2021/08/31 10:52:36;;;;;;;22.27;17.10;;;;;;;;;;5014577;28;20010;-82
2021/08/31 10:55:02;;;;;;;25.98;17.08;;;;;;;;;;5015221;28;20511;-82
2021/08/31 10:57:37;;;;;;;26.55;15.35;;;27.70;54.20;;;;;;5015179;28;20040;-83
2021/08/31 11:00:03;;;;;;;21.17;15.85;;;;;;;;;;5017715;28;20026;-82
2021/08/31 11:02:48;;;;;;;22.30;15.75;;;;;;;;;;5020111;28;20014;-83
2021/08/31 11:05:24;;;;;;;26.38;22.98;;;26.90;56.60;;;;;;5013930;28;20168;-81
2021/08/31 11:08:11;;;;;;;22.90;16.70;;;26.70;57.80;;;;;;4998447;28;20030;-82
2021/08/31 11:10:42;;;;;;;21.38;16.55;;;26.60;58.20;;;;;;5010866;28;20026;-83
2021/08/31 11:13:17;;;;;;;21.55;17.13;;;26.60;58.50;;;;;;5014864;28;20088;-82
2021/08/31 11:15:48;;;;;;;23.23;16.63;;;26.50;58.00;;;;;;5014510;28;20026;-82
2021/08/31 11:18:17;;;;;;;19.48;15.05;;;26.50;58.10;;;;;;5013625;28;20018;-82
2021/08/31 11:20:47;;;;;;;17.42;15.50;;;26.40;58.60;;;;;;5014906;28;20076;-84
2021/08/31 11:23:23;;;;;;;23.10;16.65;;;26.30;58.90;;;;;;5014868;28;20036;-83
2021/08/31 11:25:52;;;;;;;21.27;17.88;;;26.30;59.40;;;;;;5015188;28;20026;-84
2021/08/31 11:28:24;;;;;;;21.08;16.40;;;26.30;59.50;;;;;;5016015;28;20046;-83
2021/08/31 11:30:55;;;;;;;22.50;17.00;;;26.30;60.00;;;;;;5014718;28;20052;-84
2021/08/31 11:33:28;;;;;;;21.75;16.10;;;26.30;59.80;;;;;;5001329;28;20072;-81
2021/08/31 11:36:04;;;;;;;23.90;16.33;;;26.40;59.80;;;;;;5014783;28;20021;-83
2021/08/31 11:38:43;;;;;;;22.52;13.98;;;26.40;58.60;;;;;;5002151;28;20486;-82
2021/08/31 11:41:19;;;;;;;19.95;14.60;;;26.30;58.90;;;;;;5013455;28;20022;-83
2021/08/31 11:43:53;;;;;;;21.38;14.88;;;26.30;59.50;;;;;;5013023;28;20060;-84
2021/08/31 11:46:20;;;;;;;20.77;15.60;;;26.30;59.20;;;;;;5015463;28;20029;-83
2021/08/31 11:48:46;;;;;;;23.35;16.40;;;26.30;59.70;;;;;;5015185;28;20026;-84
2021/08/31 11:51:12;;;;;;;28.35;16.27;;;26.30;59.00;;;;;;5016835;28;20030;-83
2021/08/31 11:53:38;;;;;;;18.27;14.52;;;26.30;59.30;;;;;;5015001;28;20109;-83
2021/08/31 11:56:05;;;;;;;26.25;19.67;;;26.40;59.50;;;;;;5006848;28;20395;-81
2021/08/31 11:58:42;;;;;;;18.23;13.63;;;26.40;59.00;;;;;;4993629;28;20022;-85
2021/08/31 12:01:07;;;;;;;21.07;14.23;;;26.50;58.50;;;;;;5000058;28;20065;-81
2021/08/31 12:03:33;;;;;;;22.13;15.20;;;26.50;58.70;;;;;;5012729;28;20484;-83
2021/08/31 12:06:11;;;;;;;21.17;15.07;;;26.40;59.20;;;;;;5013710;28;20100;-83
2021/08/31 12:08:43;;;;;;;21.27;15.82;;;26.50;59.20;;;;;;5013886;28;20022;-83
2021/08/31 12:11:10;;;;;;;25.80;15.98;;;26.50;58.80;;;;;;5013753;28;20021;-82
2021/08/31 12:13:37;;;;;;;19.92;13.75;;;26.50;59.60;;;;;;5014199;28;20049;-84
2021/08/31 12:16:04;;;;;;;21.13;14.73;;;26.50;59.30;;;;;;5016622;28;20029;-82
2021/08/31 12:18:31;;;;;;;20.55;14.90;;;26.50;59.30;;;;;;5015933;28;20099;-83
2021/08/31 12:21:24;;;;;;;29.75;14.32;;;26.40;59.20;;;;;;5015518;28;20041;-80
2021/08/31 12:23:52;;;;;;;22.08;14.00;;;26.50;59.90;;;;;;5017028;28;20045;-81
2021/08/31 12:26:35;;;;;;;20.63;14.35;;;26.40;59.40;;;;;;5016101;28;20099;-84
2021/08/31 12:29:03;;;;;;;20.42;14.25;;;26.50;60.10;;;;;;5013677;28;20026;-82
2021/08/31 12:31:30;;;;;;;22.20;14.00;;;26.50;59.40;;;;;;5013718;28;20144;-82
2021/08/31 12:33:55;;;;;;;18.80;13.20;;;26.50;59.40;;;;;;5021575;28;20026;-82
2021/08/31 12:36:31;;;;;;;22.20;14.13;;;26.50;60.10;;;;;;5015826;28;20121;-82